Weaverville, California
Current Conditions -  °F | °C
As of 9:15 AM on Thursday 27 Nov 2014 (Local Time) from KO54 Reporting Station
Overcast Overcast  
Wind Chill: 41°   Ceiling: 200
Heat Index: 41°   Visibility: 3mi
Dew Point: 41°   Wind: 0mph
Humidity: 100%   Direction: NA
Pressure: 30.22"   Gusts: NA
Location:  40.73°N, 122.94°W
Report Text: KO54 271715Z AUTO 00000KT 3SM OVC002 05/05 A3022 RMK AO1
Loading
Personal Weather Stations






























Interactive Weather Map New forecast layout! Learn more

10-Day Weather Forecast

Advertisements
Track Severe Weather on mobile